Time;durP1;ratioP1;P1;durP2;ratioP2;P2;SDS_P1;SDS_P2;PMS_P1;PMS_P2;Temp;Humidity;BMP_temperature;BMP_pressure;BME280_temperature;BME280_humidity;BME280_pressure;Samples;Min_cycle;Max_cycle;Signal;HPM_P1;HPM_P2
2021/09/30 00:00:46;;;;;;;20.77;11.20;;;22.70;99.90;;;;;;5055612;28;20119;-51
2021/09/30 00:03:14;;;;;;;18.55;9.95;;;22.80;99.90;;;;;;5071773;28;20395;-48
2021/09/30 00:05:43;;;;;;;17.40;10.35;;;22.80;99.90;;;;;;5073010;28;20525;-48
2021/09/30 00:08:11;;;;;;;16.52;10.73;;;22.70;99.90;;;;;;5071725;28;20048;-48
2021/09/30 00:10:45;;;;;;;13.73;9.68;;;22.70;99.90;;;;;;5055120;28;20495;-49
2021/09/30 00:13:37;;;;;;;17.58;10.85;;;22.70;99.90;;;;;;5071805;28;20037;-48
2021/09/30 00:35:45;;;;;;;18.40;10.95;;;22.60;99.90;;;;;;5076410;28;20037;-47
2021/09/30 00:54:33;;;;;;;17.17;9.73;;;22.60;99.90;;;;;;5076020;28;20044;-47
2021/09/30 01:52:48;;;;;;;16.67;11.80;;;22.30;99.90;;;;;;5073481;28;20052;-47
2021/09/30 02:29:38;;;;;;;21.92;12.32;;;22.10;99.90;;;;;;4995934;28;20053;-49
2021/09/30 03:00:42;;;;;;;22.08;13.00;;;22.00;99.90;;;;;;5073630;28;20113;-47
2021/09/30 03:03:14;;;;;;;24.15;12.75;;;22.00;99.90;;;;;;5072558;28;20524;-50
2021/09/30 03:05:43;;;;;;;16.00;11.82;;;22.00;99.90;;;;;;5072506;28;20053;-47
2021/09/30 03:08:10;;;;;;;21.55;11.15;;;22.00;99.90;;;;;;5055820;28;20032;-48
2021/09/30 03:10:39;;;;;;;17.63;11.13;;;22.00;99.90;;;;;;5056042;28;20132;-47
2021/09/30 03:13:07;;;;;;;16.40;11.55;;;22.00;99.90;;;;;;5039227;28;20067;-49
2021/09/30 03:15:51;;;;;;;20.75;11.80;;;22.00;99.90;;;;;;5039049;28;20036;-48
2021/09/30 03:18:31;;;;;;;18.52;12.40;;;22.00;99.90;;;;;;5039156;28;20048;-48
2021/09/30 03:23:30;;;;;;;17.92;11.95;;;22.00;99.90;;;;;;5072340;28;20044;-47
2021/09/30 03:25:59;;;;;;;21.63;12.60;;;22.00;99.90;;;;;;5039202;28;20050;-47
2021/09/30 03:28:29;;;;;;;18.98;11.38;;;22.00;99.90;;;;;;5072477;28;20055;-48
2021/09/30 03:31:00;;;;;;;19.77;10.85;;;22.00;99.90;;;;;;5039110;28;20052;-47
2021/09/30 03:33:35;;;;;;;22.75;11.63;;;22.00;99.90;;;;;;5072238;28;20047;-47
2021/09/30 03:36:10;;;;;;;17.17;10.27;;;22.00;99.90;;;;;;5072293;28;20068;-49
2021/09/30 03:38:38;;;;;;;19.13;12.48;;;22.00;99.90;;;;;;5055516;28;20045;-48
2021/09/30 03:41:08;;;;;;;17.50;12.13;;;22.00;99.90;;;;;;5039107;28;20044;-48
2021/09/30 03:43:35;;;;;;;19.33;11.02;;;22.00;99.90;;;;;;5072284;28;20429;-48
2021/09/30 03:46:04;;;;;;;17.13;11.77;;;22.00;99.90;;;;;;5055447;28;20041;-49
2021/09/30 03:48:53;;;;;;;18.38;12.23;;;22.00;99.90;;;;;;5057892;28;20033;-50
2021/09/30 03:51:34;;;;;;;20.48;11.70;;;22.00;99.90;;;;;;5073079;28;20056;-47
2021/09/30 03:54:18;;;;;;;18.25;10.88;;;22.00;99.90;;;;;;5076106;28;20043;-48
2021/09/30 03:59:50;;;;;;;19.38;12.50;;;22.00;99.90;;;;;;4998848;28;20082;-48
2021/09/30 04:02:37;;;;;;;23.65;12.68;;;21.90;99.90;;;;;;5058846;28;20040;-49
2021/09/30 04:05:06;;;;;;;25.15;12.32;;;21.90;99.90;;;;;;5075716;28;20048;-48
2021/09/30 04:07:34;;;;;;;19.08;12.77;;;21.90;99.90;;;;;;5059522;28;20528;-49
2021/09/30 04:10:04;;;;;;;20.33;11.80;;;21.90;99.90;;;;;;5075326;28;20131;-48
2021/09/30 04:12:32;;;;;;;22.38;12.50;;;21.90;99.90;;;;;;5075832;28;20112;-47
2021/09/30 04:15:01;;;;;;;15.93;11.82;;;21.90;99.90;;;;;;5042561;28;20139;-48
2021/09/30 04:17:28;;;;;;;21.73;11.80;;;21.90;99.90;;;;;;5075583;28;20390;-47
2021/09/30 04:19:56;;;;;;;16.77;10.98;;;21.90;99.90;;;;;;5075464;28;20083;-48
2021/09/30 04:22:24;;;;;;;19.38;12.68;;;21.80;99.90;;;;;;5075961;28;20047;-47
2021/09/30 04:24:52;;;;;;;19.10;12.35;;;21.80;99.90;;;;;;5075366;28;20048;-50
2021/09/30 04:27:20;;;;;;;20.25;12.48;;;21.80;99.90;;;;;;5058844;28;20036;-48
2021/09/30 04:29:50;;;;;;;22.40;13.93;;;21.80;99.90;;;;;;5075298;28;20052;-47
2021/09/30 04:32:19;;;;;;;23.35;14.15;;;21.80;99.90;;;;;;5058909;28;20447;-47
2021/09/30 04:34:47;;;;;;;19.52;12.90;;;21.80;99.90;;;;;;5058697;28;20049;-47
2021/09/30 04:37:16;;;;;;;20.60;12.15;;;21.80;99.90;;;;;;5041957;28;20135;-48
2021/09/30 04:39:45;;;;;;;19.05;12.10;;;21.80;99.90;;;;;;5042273;28;20047;-47
2021/09/30 04:42:13;;;;;;;38.85;16.00;;;21.80;99.90;;;;;;5058450;28;20076;-48
2021/09/30 04:44:41;;;;;;;37.20;17.20;;;21.80;99.90;;;;;;5058541;28;20056;-48
2021/09/30 04:47:08;;;;;;;38.03;13.63;;;21.80;99.90;;;;;;5075021;28;20494;-48
2021/09/30 04:49:59;;;;;;;30.63;16.27;;;21.80;99.90;;;;;;5060277;28;20166;-48
2021/09/30 04:52:29;;;;;;;29.58;17.08;;;21.80;99.90;;;;;;5042067;28;20047;-48
2021/09/30 04:54:57;;;;;;;30.75;15.23;;;21.80;99.90;;;;;;5074797;28;20044;-49
2021/09/30 04:57:25;;;;;;;35.92;16.52;;;21.80;99.90;;;;;;5074770;28;20044;-47
2021/09/30 04:59:53;;;;;;;30.42;15.55;;;21.80;99.90;;;;;;5075865;28;20102;-47
2021/09/30 05:02:50;;;;;;;;;;;21.80;99.90;;;;;;5062518;28;20442;-47
2021/09/30 05:05:17;;;;;;;30.25;15.15;;;21.90;99.90;;;;;;5041695;28;19924;-47
2021/09/30 05:07:47;;;;;;;36.42;16.50;;;22.00;99.90;;;;;;5042053;28;20048;-47
2021/09/30 05:10:19;;;;;;;32.22;15.80;;;22.00;99.90;;;;;;5058185;28;20040;-48
2021/09/30 05:12:49;;;;;;;28.13;16.55;;;22.10;99.90;;;;;;5041575;28;20053;-49
2021/09/30 05:15:17;;;;;;;31.33;15.23;;;22.20;99.90;;;;;;5041283;28;20066;-47
2021/09/30 05:17:45;;;;;;;27.48;16.13;;;22.30;99.90;;;;;;5041448;28;20435;-48
2021/09/30 05:20:13;;;;;;;27.50;14.70;;;22.40;99.90;;;;;;5057702;28;20049;-47
2021/09/30 05:22:41;;;;;;;45.35;17.58;;;22.60;99.90;;;;;;5041548;28;20045;-48
2021/09/30 05:25:09;;;;;;;41.83;17.13;;;22.60;99.90;;;;;;5074552;28;20041;-49
2021/09/30 05:27:37;;;;;;;43.00;19.45;;;22.70;99.90;;;;;;5057684;28;20040;-47
2021/09/30 05:30:05;;;;;;;50.97;19.80;;;22.90;99.90;;;;;;5057905;28;20040;-48
2021/09/30 05:32:34;;;;;;;45.30;17.90;;;23.00;99.90;;;;;;5057677;28;20045;-48
2021/09/30 05:35:09;;;;;;;44.35;19.13;;;23.10;99.90;;;;;;5075476;28;20543;-47
2021/09/30 05:37:49;;;;;;;62.85;18.48;;;23.20;99.90;;;;;;5059630;28;20128;-49
2021/09/30 05:40:19;;;;;;;43.50;18.70;;;23.30;99.90;;;;;;5040814;28;20047;-47
2021/09/30 05:42:53;;;;;;;49.25;17.42;;;23.40;99.90;;;;;;5058190;28;20589;-52
2021/09/30 05:45:22;;;;;;;30.45;16.60;;;23.60;99.90;;;;;;5057349;28;20055;-48
2021/09/30 05:47:51;;;;;;;35.05;16.33;;;23.70;99.90;;;;;;5073953;28;20494;-47
2021/09/30 05:50:19;;;;;;;34.55;16.50;;;23.90;99.90;;;;;;5057364;28;20481;-47
2021/09/30 05:52:50;;;;;;;34.70;16.98;;;24.00;99.90;;;;;;5073886;28;20398;-48
2021/09/30 05:55:32;;;;;;;26.70;14.85;;;24.20;99.90;;;;;;5059131;28;20044;-47
2021/09/30 05:58:04;;;;;;;24.85;15.45;;;24.30;99.90;;;;;;5041085;28;20045;-48
2021/09/30 06:00:41;;;;;;;27.52;14.40;;;24.40;99.90;;;;;;5073520;28;20048;-48
2021/09/30 06:16:51;;;;;;;25.10;16.77;;;25.60;99.90;;;;;;5056578;28;20058;-48
2021/09/30 06:19:28;;;;;;;25.73;15.57;;;25.70;99.70;;;;;;5041448;28;20113;-49
2021/09/30 06:22:04;;;;;;;28.23;17.00;;;25.90;99.50;;;;;;5040744;28;20048;-48
2021/09/30 06:24:36;;;;;;;28.33;14.75;;;26.10;99.40;;;;;;5073135;28;20437;-47
2021/09/30 06:27:05;;;;;;;21.17;14.73;;;26.20;99.10;;;;;;5056966;28;20052;-48
2021/09/30 06:29:33;;;;;;;22.60;13.48;;;26.30;99.00;;;;;;5056615;28;20045;-48
2021/09/30 06:32:04;;;;;;;20.63;13.25;;;26.50;99.00;;;;;;5040471;28;20135;-48
2021/09/30 06:35:05;;;;;;;26.48;13.85;;;26.60;98.60;;;;;;5040241;28;20065;-48
2021/09/30 06:37:41;;;;;;;18.08;13.25;;;26.70;98.40;;;;;;5056283;28;20048;-49
2021/09/30 06:40:10;;;;;;;20.10;13.15;;;26.80;98.40;;;;;;5073262;28;20109;-48
2021/09/30 06:42:39;;;;;;;16.77;12.05;;;26.90;98.20;;;;;;5039880;28;20052;-48
2021/09/30 06:45:27;;;;;;;18.30;10.80;;;27.00;98.20;;;;;;5062592;28;20102;-48
2021/09/30 06:48:09;;;;;;;16.23;11.27;;;27.10;97.90;;;;;;5073156;28;20044;-48
2021/09/30 06:50:51;;;;;;;15.05;10.43;;;27.30;97.70;;;;;;5072825;28;20051;-49
2021/09/30 06:53:25;;;;;;;15.73;10.73;;;27.50;97.50;;;;;;5072571;28;20040;-50
2021/09/30 06:55:58;;;;;;;16.92;11.43;;;27.60;97.30;;;;;;5056143;28;20050;-48
2021/09/30 06:58:45;;;;;;;15.50;11.45;;;27.80;97.20;;;;;;5058522;28;20121;-49
2021/09/30 07:01:37;;;;;;;15.82;10.38;;;27.90;97.00;;;;;;5058781;28;20048;-48
2021/09/30 07:04:18;;;;;;;16.67;9.55;;;28.00;96.70;;;;;;5073714;28;20088;-49
2021/09/30 07:07:04;;;;;;;16.63;11.23;;;28.10;96.50;;;;;;5072926;28;20051;-48
2021/09/30 07:09:32;;;;;;;13.70;9.90;;;28.20;96.30;;;;;;5039353;28;20487;-48
2021/09/30 07:12:01;;;;;;;15.90;10.63;;;28.30;96.40;;;;;;5056047;28;20466;-48
2021/09/30 07:14:29;;;;;;;18.73;10.50;;;28.20;96.30;;;;;;5072657;28;20087;-48
2021/09/30 07:16:58;;;;;;;13.38;9.77;;;28.10;96.40;;;;;;5056039;28;20040;-49
2021/09/30 07:19:26;;;;;;;14.13;9.40;;;28.00;96.40;;;;;;5055599;28;20098;-48
2021/09/30 07:21:53;;;;;;;15.25;9.75;;;28.00;96.30;;;;;;5055833;28;20055;-48
2021/09/30 07:24:21;;;;;;;14.02;9.02;;;28.10;96.40;;;;;;5055751;28;20093;-49
2021/09/30 07:26:49;;;;;;;14.82;9.85;;;28.00;96.30;;;;;;5072037;28;20525;-50
2021/09/30 07:29:16;;;;;;;12.30;8.38;;;27.80;96.40;;;;;;5072095;28;20056;-48
2021/09/30 07:31:44;;;;;;;17.38;9.88;;;27.80;96.50;;;;;;5055522;28;20048;-48
2021/09/30 07:34:12;;;;;;;15.30;8.85;;;27.90;96.40;;;;;;5072120;28;20037;-48
2021/09/30 07:36:41;;;;;;;13.00;8.57;;;28.00;96.10;;;;;;5055483;28;20063;-48
2021/09/30 07:39:10;;;;;;;13.63;7.65;;;28.10;95.70;;;;;;5055571;28;20051;-48
2021/09/30 07:41:38;;;;;;;18.52;10.93;;;28.20;95.20;;;;;;5055548;28;20491;-48
2021/09/30 07:44:05;;;;;;;15.90;11.05;;;28.40;94.60;;;;;;5055343;28;20045;-48
2021/09/30 07:46:38;;;;;;;19.30;10.27;;;28.50;94.30;;;;;;5055588;28;20044;-48
2021/09/30 07:49:07;;;;;;;13.95;8.80;;;28.70;94.20;;;;;;5072006;28;20051;-48
2021/09/30 07:51:36;;;;;;;16.10;10.52;;;28.90;93.90;;;;;;5055107;28;20044;-48
2021/09/30 07:54:05;;;;;;;15.45;10.30;;;29.10;93.70;;;;;;5072036;28;20094;-48
2021/09/30 07:56:35;;;;;;;14.88;9.18;;;29.20;93.60;;;;;;5073259;28;20476;-48
2021/09/30 07:59:03;;;;;;;13.15;8.35;;;29.30;93.50;;;;;;5072172;28;20044;-47
2021/09/30 08:01:31;;;;;;;15.68;9.10;;;29.30;92.80;;;;;;5055122;28;20037;-48
2021/09/30 08:04:00;;;;;;;15.90;9.98;;;29.40;92.70;;;;;;5072276;28;20086;-48
2021/09/30 08:06:27;;;;;;;10.77;7.80;;;29.60;92.60;;;;;;5055224;28;20438;-49
2021/09/30 08:08:56;;;;;;;13.20;8.73;;;29.70;92.40;;;;;;5071859;28;20127;-48
2021/09/30 08:11:27;;;;;;;14.57;8.65;;;29.80;92.00;;;;;;5055030;28;20048;-48
2021/09/30 08:13:55;;;;;;;12.00;6.88;;;29.90;91.50;;;;;;5073047;28;20044;-48
2021/09/30 08:16:23;;;;;;;14.98;7.70;;;30.00;91.40;;;;;;5055042;28;20048;-49
2021/09/30 08:18:52;;;;;;;11.75;7.90;;;29.90;91.30;;;;;;5071854;28;20112;-47
2021/09/30 08:21:20;;;;;;;11.68;8.40;;;30.00;91.30;;;;;;5071825;28;20125;-48
2021/09/30 08:23:47;;;;;;;10.50;7.90;;;30.00;91.20;;;;;;5071684;28;20048;-48
2021/09/30 08:26:19;;;;;;;11.27;7.95;;;29.90;90.90;;;;;;5055300;28;20398;-48
2021/09/30 08:28:51;;;;;;;17.20;8.52;;;29.90;90.50;;;;;;5054880;28;20067;-48
2021/09/30 08:31:22;;;;;;;10.30;7.18;;;29.80;90.00;;;;;;5072024;28;20052;-48
2021/09/30 08:33:51;;;;;;;10.65;6.80;;;29.60;90.10;;;;;;5054379;28;20045;-47
2021/09/30 08:36:18;;;;;;;12.15;6.70;;;29.40;90.10;;;;;;5054434;28;20090;-48
2021/09/30 08:38:46;;;;;;;10.07;7.03;;;29.30;90.20;;;;;;5073706;28;20490;-48
2021/09/30 08:41:15;;;;;;;10.75;6.78;;;29.30;90.50;;;;;;5075238;28;20051;-47
2021/09/30 08:43:43;;;;;;;10.13;7.50;;;29.10;90.70;;;;;;5058556;28;20402;-48
2021/09/30 08:46:11;;;;;;;11.20;7.03;;;29.00;90.50;;;;;;5058444;28;20044;-48
2021/09/30 08:48:40;;;;;;;11.27;6.38;;;28.80;89.80;;;;;;5075338;28;20041;-47
2021/09/30 08:51:10;;;;;;;10.38;7.55;;;28.70;89.00;;;;;;5058307;28;20064;-47
2021/09/30 08:53:38;;;;;;;14.35;7.63;;;28.40;89.30;;;;;;5058412;28;20041;-47
2021/09/30 08:56:07;;;;;;;12.40;8.23;;;28.10;89.80;;;;;;5074829;28;20047;-48
2021/09/30 08:58:37;;;;;;;13.18;7.50;;;27.90;90.10;;;;;;5075279;28;20486;-48
2021/09/30 09:01:07;;;;;;;19.65;7.22;;;27.90;90.40;;;;;;5074941;28;20380;-48
2021/09/30 09:03:46;;;;;;;9.10;6.38;;;27.90;90.40;;;;;;5075936;28;20054;-47
2021/09/30 09:06:34;;;;;;;10.48;6.85;;;28.20;90.00;;;;;;5074708;28;20047;-49
2021/09/30 09:09:28;;;;;;;10.32;6.15;;;28.60;89.10;;;;;;5057791;28;20071;-49
2021/09/30 09:12:02;;;;;;;10.80;6.65;;;28.90;87.40;;;;;;5071177;28;20105;-48
2021/09/30 09:14:33;;;;;;;9.30;5.57;;;29.20;86.80;;;;;;5058014;28;20045;-50
2021/09/30 09:17:07;;;;;;;8.90;6.70;;;29.20;86.30;;;;;;5075940;28;20049;-48
2021/09/30 09:19:37;;;;;;;9.75;6.72;;;29.30;86.30;;;;;;5057691;28;20063;-47
2021/09/30 09:22:16;;;;;;;9.55;6.38;;;29.50;85.60;;;;;;5074409;28;20071;-48
2021/09/30 09:25:08;;;;;;;9.48;6.30;;;29.60;85.70;;;;;;5057638;28;20474;-48
2021/09/30 09:27:55;;;;;;;9.43;7.18;;;29.70;86.60;;;;;;5057916;28;20040;-47
2021/09/30 09:30:32;;;;;;;15.93;7.25;;;29.70;86.00;;;;;;5057621;28;20059;-48
2021/09/30 09:33:07;;;;;;;9.07;6.47;;;29.40;86.00;;;;;;5057568;28;20102;-49
2021/09/30 09:35:55;;;;;;;11.85;7.55;;;29.20;86.00;;;;;;5057424;28;20044;-47
2021/09/30 09:38:29;;;;;;;12.10;6.50;;;29.00;86.40;;;;;;5057559;28;20044;-47
2021/09/30 09:41:01;;;;;;;12.30;6.53;;;29.10;87.20;;;;;;5075371;28;20440;-49
2021/09/30 09:43:29;;;;;;;11.43;7.18;;;29.00;86.60;;;;;;5056906;28;20048;-48
2021/09/30 09:45:57;;;;;;;8.98;6.00;;;28.90;87.00;;;;;;5057525;28;20079;-47
2021/09/30 09:48:25;;;;;;;13.43;7.82;;;28.60;87.80;;;;;;5057297;28;20049;-48
2021/09/30 09:50:54;;;;;;;10.27;7.90;;;28.30;88.60;;;;;;5073613;28;20158;-47
2021/09/30 09:53:28;;;;;;;10.52;7.03;;;28.20;89.30;;;;;;5073683;28;20131;-48
2021/09/30 09:56:13;;;;;;;14.13;7.32;;;28.30;89.00;;;;;;5074857;28;20425;-48
2021/09/30 09:59:01;;;;;;;12.57;7.50;;;28.40;89.00;;;;;;5057217;28;20044;-48
2021/09/30 10:01:44;;;;;;;11.48;6.82;;;28.70;88.20;;;;;;5056790;28;20041;-48
2021/09/30 10:04:13;;;;;;;9.60;6.55;;;28.90;87.20;;;;;;5074688;28;20386;-48
2021/09/30 10:06:41;;;;;;;10.45;7.40;;;29.20;86.80;;;;;;5073727;28;20048;-48
2021/09/30 10:09:14;;;;;;;8.63;6.47;;;29.30;85.60;;;;;;5073535;28;20067;-47
2021/09/30 10:11:42;;;;;;;8.75;6.63;;;29.20;85.40;;;;;;5056922;28;20049;-48
2021/09/30 10:14:10;;;;;;;12.73;5.85;;;29.30;85.60;;;;;;5073172;28;20052;-48
2021/09/30 10:16:39;;;;;;;9.73;5.65;;;29.20;85.10;;;;;;5073406;28;20076;-48
2021/09/30 10:19:08;;;;;;;13.38;6.40;;;28.90;85.10;;;;;;5073178;28;20053;-49
2021/09/30 10:21:38;;;;;;;11.32;6.72;;;28.70;85.50;;;;;;5056405;28;20043;-48
2021/09/30 10:24:17;;;;;;;9.35;6.38;;;28.20;86.20;;;;;;5056616;28;20048;-48
2021/09/30 10:26:58;;;;;;;9.05;5.82;;;28.10;87.40;;;;;;5074378;28;20040;-48
2021/09/30 10:29:47;;;;;;;8.95;5.75;;;28.00;87.70;;;;;;5074280;28;20032;-48
2021/09/30 10:32:20;;;;;;;10.35;6.50;;;28.00;88.00;;;;;;5073178;28;20379;-48
2021/09/30 10:34:55;;;;;;;8.40;5.85;;;28.20;88.00;;;;;;5056363;28;20044;-48
2021/09/30 10:37:35;;;;;;;9.63;5.63;;;28.30;87.30;;;;;;5072937;28;20044;-49
2021/09/30 10:40:14;;;;;;;11.05;6.03;;;28.60;86.80;;;;;;5074054;28;20036;-49
2021/09/30 10:42:56;;;;;;;8.27;5.38;;;28.90;85.90;;;;;;5056073;28;20079;-48
2021/09/30 10:45:38;;;;;;;7.07;5.18;;;28.90;84.20;;;;;;5073949;28;20139;-47
2021/09/30 10:48:26;;;;;;;11.63;6.20;;;28.70;84.80;;;;;;5074037;28;20037;-47
2021/09/30 10:51:00;;;;;;;8.38;6.07;;;28.40;85.20;;;;;;5041065;28;20426;-49
2021/09/30 10:53:45;;;;;;;9.55;5.43;;;28.20;85.40;;;;;;5073775;28;20052;-48
2021/09/30 10:56:33;;;;;;;6.38;5.07;;;28.20;85.30;;;;;;5072854;28;20044;-47
2021/09/30 10:59:22;;;;;;;7.72;5.43;;;28.10;84.90;;;;;;5074194;28;20048;-49
2021/09/30 11:01:52;;;;;;;7.82;4.90;;;28.40;84.20;;;;;;5055168;28;20049;-47
2021/09/30 11:04:21;;;;;;;9.70;6.78;;;28.50;83.50;;;;;;5072343;28;20372;-47
2021/09/30 11:07:16;;;;;;;8.18;6.10;;;28.50;82.90;;;;;;5055415;28;20110;-48
2021/09/30 11:10:16;;;;;;;9.10;5.82;;;28.60;83.00;;;;;;5072774;28;20482;-48
2021/09/30 11:13:17;;;;;;;6.60;4.90;;;28.70;82.70;;;;;;5072417;28;20049;-48
2021/09/30 11:16:05;;;;;;;8.10;5.60;;;28.70;81.70;;;;;;5054741;28;20060;-48
2021/09/30 11:18:53;;;;;;;7.40;4.30;;;28.60;81.10;;;;;;5055817;28;20375;-50
2021/09/30 11:24:02;;;;;;;11.75;5.15;;;28.60;83.00;;;;;;5073449;28;20053;-48
2021/09/30 11:26:51;;;;;;;8.93;5.10;;;28.60;83.70;;;;;;5055670;28;20045;-47
2021/09/30 11:29:21;;;;;;;11.07;5.32;;;28.60;82.60;;;;;;5073770;28;20383;-48
2021/09/30 11:31:49;;;;;;;6.22;5.13;;;28.60;82.60;;;;;;5055637;28;20131;-49
2021/09/30 11:34:23;;;;;;;9.18;5.20;;;28.60;84.20;;;;;;5055646;28;20067;-48
2021/09/30 11:36:53;;;;;;;9.32;4.40;;;28.50;83.60;;;;;;5072367;28;20044;-48
2021/09/30 11:39:21;;;;;;;6.75;4.88;;;28.40;83.90;;;;;;5055682;28;20094;-47
2021/09/30 11:41:51;;;;;;;11.77;4.60;;;28.40;84.00;;;;;;5072233;28;20041;-48
2021/09/30 11:44:20;;;;;;;5.80;4.47;;;28.40;84.10;;;;;;5072010;28;20036;-47
2021/09/30 11:46:54;;;;;;;6.60;4.72;;;28.40;83.90;;;;;;5055535;28;20062;-47
2021/09/30 11:49:21;;;;;;;6.97;4.32;;;28.50;82.50;;;;;;5073346;28;20045;-48
2021/09/30 11:51:52;;;;;;;9.60;4.93;;;28.50;82.60;;;;;;5072298;28;20048;-47
2021/09/30 11:54:33;;;;;;;8.38;4.93;;;28.60;82.40;;;;;;5073396;28;20582;-49
2021/09/30 11:57:01;;;;;;;8.70;5.32;;;28.30;82.90;;;;;;5038821;28;20044;-47
2021/09/30 11:59:31;;;;;;;6.53;4.75;;;28.30;83.50;;;;;;5055676;28;20075;-48
2021/09/30 12:02:05;;;;;;;9.02;4.75;;;28.10;83.20;;;;;;5055292;28;20041;-47
2021/09/30 12:04:49;;;;;;;6.40;4.25;;;28.10;82.20;;;;;;5071642;28;20063;-47
2021/09/30 12:07:25;;;;;;;7.93;4.75;;;28.00;82.40;;;;;;5071805;28;20086;-49
2021/09/30 12:09:55;;;;;;;6.85;5.03;;;28.00;82.60;;;;;;5071793;28;20048;-48
2021/09/30 12:12:36;;;;;;;7.30;5.10;;;28.10;82.60;;;;;;5056202;28;20071;-47
2021/09/30 12:15:05;;;;;;;7.03;4.45;;;28.10;82.50;;;;;;5058963;28;20068;-48
2021/09/30 12:17:36;;;;;;;7.22;5.05;;;28.20;81.40;;;;;;5076797;28;20052;-47
2021/09/30 12:20:07;;;;;;;7.55;4.15;;;28.20;80.70;;;;;;5074941;28;20048;-48
2021/09/30 12:22:59;;;;;;;7.07;4.65;;;28.30;80.90;;;;;;5058701;28;20058;-48
2021/09/30 12:25:28;;;;;;;4.88;3.67;;;28.30;80.40;;;;;;5076595;28;20052;-51
2021/09/30 12:27:58;;;;;;;4.70;3.88;;;28.30;80.20;;;;;;5059099;28;20045;-48
2021/09/30 12:30:28;;;;;;;8.05;4.78;;;28.40;79.50;;;;;;5076437;28;20044;-52
2021/09/30 12:33:03;;;;;;;8.10;5.40;;;28.40;79.80;;;;;;5059042;28;20497;-50
2021/09/30 12:35:37;;;;;;;6.60;4.78;;;28.20;79.90;;;;;;5075302;28;20099;-49
2021/09/30 12:38:20;;;;;;;6.57;4.82;;;28.20;80.30;;;;;;5076665;28;20181;-48
2021/09/30 12:40:53;;;;;;;6.18;4.43;;;28.20;79.40;;;;;;5058451;28;20040;-49
2021/09/30 12:43:30;;;;;;;7.18;4.82;;;28.30;80.60;;;;;;5058228;28;20048;-48
2021/09/30 12:46:02;;;;;;;8.25;3.65;;;28.30;80.60;;;;;;5076569;28;20127;-47
2021/09/30 12:48:32;;;;;;;5.82;4.18;;;28.00;80.80;;;;;;5074894;28;20502;-48
2021/09/30 12:51:04;;;;;;;6.93;4.95;;;28.00;83.00;;;;;;5075078;28;20402;-47
2021/09/30 12:53:52;;;;;;;7.38;5.05;;;27.80;83.70;;;;;;5058074;28;20127;-49
2021/09/30 12:56:27;;;;;;;6.82;4.60;;;27.60;83.90;;;;;;5058276;28;20117;-47
2021/09/30 12:58:55;;;;;;;;;;;27.40;84.10;;;;;;5058726;28;20052;-47
2021/09/30 13:01:35;;;;;;;5.90;4.28;;;27.40;83.90;;;;;;5076046;28;20015;-47
2021/09/30 13:04:09;;;;;;;7.10;5.10;;;27.30;85.80;;;;;;5076209;28;20123;-47
2021/09/30 13:06:53;;;;;;;5.88;4.68;;;27.30;87.50;;;;;;5075911;28;20052;-47
2021/09/30 13:09:32;;;;;;;7.85;4.45;;;27.20;87.00;;;;;;5074692;28;20080;-48
2021/09/30 13:12:01;;;;;;;6.60;4.82;;;27.20;86.60;;;;;;5075778;28;20056;-47
2021/09/30 13:14:30;;;;;;;6.10;4.60;;;27.20;86.80;;;;;;5074486;28;20047;-47
2021/09/30 13:17:12;;;;;;;6.28;4.03;;;27.10;86.50;;;;;;5057902;28;20066;-47
2021/09/30 13:20:23;;;;;;;6.88;4.75;;;27.10;85.60;;;;;;5058155;28;20047;-47
2021/09/30 13:22:51;;;;;;;6.30;3.65;;;27.10;86.50;;;;;;4961914;28;20077;-48
2021/09/30 13:25:20;;;;;;;6.90;4.00;;;27.10;86.60;;;;;;4977337;28;20492;-51
2021/09/30 13:27:50;;;;;;;5.63;4.13;;;27.00;86.20;;;;;;5037734;28;20402;-48
2021/09/30 13:30:22;;;;;;;4.93;3.65;;;27.00;85.60;;;;;;5075761;28;20444;-48
2021/09/30 13:32:51;;;;;;;7.13;4.25;;;27.00;86.00;;;;;;5057722;28;20050;-51
2021/09/30 13:35:24;;;;;;;4.60;3.63;;;27.00;86.00;;;;;;5075175;28;20041;-51
2021/09/30 13:37:53;;;;;;;6.93;3.88;;;27.00;85.60;;;;;;5057671;28;20051;-51
2021/09/30 13:40:22;;;;;;;5.30;4.05;;;27.00;85.50;;;;;;5057408;28;20079;-48
2021/09/30 13:42:50;;;;;;;5.50;3.67;;;26.90;85.50;;;;;;5074051;28;20048;-48
2021/09/30 13:45:20;;;;;;;5.90;3.92;;;26.90;86.50;;;;;;5057366;28;20055;-47
2021/09/30 13:47:49;;;;;;;6.68;3.70;;;26.80;87.70;;;;;;5074275;28;20040;-48
2021/09/30 13:50:20;;;;;;;6.75;3.95;;;26.80;87.10;;;;;;5073794;28;20032;-49
2021/09/30 13:52:49;;;;;;;7.20;4.15;;;26.80;88.60;;;;;;5074783;28;20098;-47
2021/09/30 13:55:18;;;;;;;5.10;3.70;;;26.70;89.90;;;;;;5056763;28;20051;-48
2021/09/30 13:57:46;;;;;;;5.90;3.95;;;26.60;90.00;;;;;;5057270;28;20553;-47
2021/09/30 14:00:16;;;;;;;5.85;3.78;;;26.50;90.10;;;;;;5073668;28;20032;-49
2021/09/30 14:02:47;;;;;;;6.30;3.60;;;26.50;90.50;;;;;;5073460;28;20138;-48
2021/09/30 14:05:18;;;;;;;5.75;3.95;;;26.40;90.10;;;;;;5073638;28;20052;-48
2021/09/30 14:07:47;;;;;;;5.82;4.53;;;26.40;90.00;;;;;;5074833;28;20045;-48
2021/09/30 14:10:18;;;;;;;6.38;3.92;;;26.40;89.90;;;;;;5073456;28;20461;-48
2021/09/30 14:12:49;;;;;;;5.38;3.53;;;26.30;90.60;;;;;;5074714;28;20040;-48
2021/09/30 14:15:17;;;;;;;5.40;3.30;;;26.30;90.50;;;;;;5074321;28;20467;-50
2021/09/30 14:17:45;;;;;;;6.55;3.67;;;26.30;90.30;;;;;;5056702;28;20044;-47
2021/09/30 14:20:13;;;;;;;6.32;3.55;;;26.30;89.60;;;;;;5074401;28;20041;-47
2021/09/30 14:22:41;;;;;;;5.53;3.60;;;26.20;88.40;;;;;;5073344;28;20044;-47
2021/09/30 14:25:10;;;;;;;5.35;3.67;;;26.30;88.70;;;;;;5073404;28;20503;-48
2021/09/30 14:27:38;;;;;;;4.60;3.15;;;26.20;88.90;;;;;;5073339;28;20513;-47
2021/09/30 14:30:07;;;;;;;5.32;3.15;;;26.30;89.30;;;;;;5073106;28;20047;-48
2021/09/30 14:32:51;;;;;;;6.43;3.95;;;26.30;89.50;;;;;;5073182;28;20066;-51
2021/09/30 14:35:19;;;;;;;5.43;3.40;;;26.30;89.30;;;;;;5072564;28;20490;-48
2021/09/30 14:37:47;;;;;;;6.60;4.30;;;26.20;89.50;;;;;;5072757;28;20068;-47
2021/09/30 14:40:15;;;;;;;6.47;4.32;;;26.10;89.40;;;;;;5072780;28;20546;-47
2021/09/30 14:42:43;;;;;;;6.53;4.13;;;26.00;88.60;;;;;;5072653;28;20051;-47
2021/09/30 14:45:11;;;;;;;10.00;4.20;;;25.90;88.30;;;;;;5055983;28;20056;-48
2021/09/30 14:47:39;;;;;;;6.28;3.97;;;25.90;88.30;;;;;;5072903;28;20123;-47
2021/09/30 14:50:07;;;;;;;7.88;3.72;;;25.80;88.40;;;;;;5072621;28;20049;-48
2021/09/30 14:52:35;;;;;;;6.70;3.50;;;25.80;87.80;;;;;;5056162;28;20050;-47
2021/09/30 14:55:03;;;;;;;6.95;4.82;;;25.80;88.70;;;;;;5072659;28;20128;-48
2021/09/30 14:57:31;;;;;;;7.40;4.03;;;25.80;89.90;;;;;;5055552;28;20047;-48
2021/09/30 14:59:59;;;;;;;7.70;3.85;;;25.80;90.20;;;;;;5073707;28;20066;-48
2021/09/30 15:02:27;;;;;;;6.85;3.88;;;25.80;90.40;;;;;;5072472;28;20094;-48
2021/09/30 15:04:55;;;;;;;5.65;3.85;;;25.80;90.50;;;;;;5056000;28;20052;-48
2021/09/30 15:07:23;;;;;;;5.72;4.10;;;25.70;91.20;;;;;;5039266;28;20040;-48
2021/09/30 15:09:51;;;;;;;7.00;3.63;;;25.70;90.80;;;;;;5072557;28;20541;-48
2021/09/30 15:12:19;;;;;;;5.13;3.45;;;25.70;90.60;;;;;;5072157;28;20044;-48
2021/09/30 15:14:47;;;;;;;9.27;4.10;;;25.70;90.60;;;;;;5072340;28;20048;-48
2021/09/30 15:17:33;;;;;;;5.20;3.15;;;25.70;90.90;;;;;;5073445;28;20123;-48
2021/09/30 15:22:37;;;;;;;5.20;3.85;;;25.70;91.00;;;;;;5073427;28;20068;-48
2021/09/30 15:25:07;;;;;;;5.45;3.47;;;25.80;91.40;;;;;;5071938;28;20056;-48
2021/09/30 15:27:36;;;;;;;6.25;4.07;;;25.70;91.40;;;;;;5072494;28;20362;-47
2021/09/30 15:30:05;;;;;;;6.30;4.22;;;25.70;91.60;;;;;;5072337;28;20137;-47
2021/09/30 15:32:33;;;;;;;6.03;4.38;;;25.70;91.90;;;;;;5072167;28;20135;-48
2021/09/30 15:35:02;;;;;;;6.70;4.75;;;25.70;92.10;;;;;;5055591;28;20059;-49
2021/09/30 15:37:30;;;;;;;5.53;4.10;;;25.60;92.00;;;;;;5072029;28;20052;-48
2021/09/30 15:39:58;;;;;;;6.15;3.90;;;25.70;92.00;;;;;;5072571;28;20040;-47
2021/09/30 15:42:25;;;;;;;5.15;3.80;;;25.60;92.00;;;;;;5072133;28;20044;-47
2021/09/30 15:44:56;;;;;;;9.40;4.25;;;25.60;92.40;;;;;;5073260;28;20074;-49
2021/09/30 15:47:25;;;;;;;5.22;3.35;;;25.50;92.40;;;;;;5073427;28;20132;-47
2021/09/30 15:49:53;;;;;;;6.38;3.90;;;25.50;92.40;;;;;;5076061;28;20457;-49
2021/09/30 15:52:21;;;;;;;4.95;4.15;;;25.40;92.30;;;;;;5059257;28;20064;-48
2021/09/30 15:54:49;;;;;;;5.25;3.60;;;25.30;92.50;;;;;;5075939;28;20049;-47
2021/09/30 15:57:18;;;;;;;4.93;3.63;;;25.30;92.60;;;;;;5059483;28;20131;-47
2021/09/30 15:59:46;;;;;;;6.15;3.42;;;25.30;92.60;;;;;;5076061;28;20082;-47
2021/09/30 16:02:13;;;;;;;7.28;3.90;;;25.30;92.70;;;;;;5075851;28;20131;-48
2021/09/30 16:04:41;;;;;;;6.80;4.05;;;25.20;92.70;;;;;;5075652;28;20636;-48